sensor_id;sensor_type;location;lat;lon;timestamp;P1;durP1;ratioP1;P2;durP2;ratioP2
9270;SDS011;4673;53.458;9.940;2024-03-02T00:01:24;12.70;;;12.60;;
9270;SDS011;4673;53.458;9.940;2024-03-02T00:03:49;12.57;;;12.47;;
9270;SDS011;4673;53.458;9.940;2024-03-02T00:06:16;13.13;;;13.03;;
9270;SDS011;4673;53.458;9.940;2024-03-02T00:08:45;14.73;;;14.63;;
9270;SDS011;4673;53.458;9.940;2024-03-02T00:11:11;15.20;;;15.10;;
9270;SDS011;4673;53.458;9.940;2024-03-02T00:13:39;14.87;;;14.77;;
9270;SDS011;4673;53.458;9.940;2024-03-02T00:16:04;15.00;;;14.90;;
9270;SDS011;4673;53.458;9.940;2024-03-02T00:18:31;13.57;;;13.47;;
9270;SDS011;4673;53.458;9.940;2024-03-02T00:21:00;16.33;;;16.23;;
9270;SDS011;4673;53.458;9.940;2024-03-02T00:23:29;14.27;;;14.17;;
9270;SDS011;4673;53.458;9.940;2024-03-02T00:25:56;15.73;;;15.63;;
9270;SDS011;4673;53.458;9.940;2024-03-02T00:33:41;16.63;;;16.53;;
9270;SDS011;4673;53.458;9.940;2024-03-02T00:36:12;16.43;;;16.33;;
9270;SDS011;4673;53.458;9.940;2024-03-02T00:38:51;15.67;;;15.57;;
9270;SDS011;4673;53.458;9.940;2024-03-02T00:41:22;17.23;;;17.13;;
9270;SDS011;4673;53.458;9.940;2024-03-02T00:44:00;17.50;;;17.40;;
9270;SDS011;4673;53.458;9.940;2024-03-02T00:46:27;18.00;;;17.90;;
9270;SDS011;4673;53.458;9.940;2024-03-02T00:48:58;17.17;;;17.07;;
9270;SDS011;4673;53.458;9.940;2024-03-02T00:51:26;18.23;;;18.03;;
9270;SDS011;4673;53.458;9.940;2024-03-02T00:53:55;18.40;;;18.30;;
9270;SDS011;4673;53.458;9.940;2024-03-02T00:56:24;18.83;;;18.73;;
9270;SDS011;4673;53.458;9.940;2024-03-02T00:58:51;18.13;;;18.03;;
9270;SDS011;4673;53.458;9.940;2024-03-02T01:01:17;18.43;;;18.33;;
9270;SDS011;4673;53.458;9.940;2024-03-02T01:03:44;19.27;;;19.17;;
9270;SDS011;4673;53.458;9.940;2024-03-02T01:06:10;20.17;;;19.97;;
9270;SDS011;4673;53.458;9.940;2024-03-02T01:08:36;20.20;;;20.00;;
9270;SDS011;4673;53.458;9.940;2024-03-02T01:11:03;18.80;;;18.67;;
9270;SDS011;4673;53.458;9.940;2024-03-02T01:13:29;20.43;;;20.33;;
9270;SDS011;4673;53.458;9.940;2024-03-02T01:15:55;20.30;;;20.20;;
9270;SDS011;4673;53.458;9.940;2024-03-02T01:18:21;20.07;;;19.87;;
9270;SDS011;4673;53.458;9.940;2024-03-02T01:20:47;20.00;;;19.90;;
9270;SDS011;4673;53.458;9.940;2024-03-02T01:23:13;21.03;;;20.83;;
9270;SDS011;4673;53.458;9.940;2024-03-02T01:25:39;19.57;;;19.40;;
9270;SDS011;4673;53.458;9.940;2024-03-02T01:28:05;20.20;;;20.10;;
9270;SDS011;4673;53.458;9.940;2024-03-02T01:30:30;18.27;;;18.17;;
9270;SDS011;4673;53.458;9.940;2024-03-02T01:32:56;20.60;;;20.40;;
9270;SDS011;4673;53.458;9.940;2024-03-02T01:35:24;21.23;;;21.03;;
9270;SDS011;4673;53.458;9.940;2024-03-02T01:37:50;20.63;;;20.43;;
9270;SDS011;4673;53.458;9.940;2024-03-02T01:40:15;20.83;;;20.63;;
9270;SDS011;4673;53.458;9.940;2024-03-02T01:42:41;20.57;;;20.37;;
9270;SDS011;4673;53.458;9.940;2024-03-02T01:45:08;20.10;;;20.00;;
9270;SDS011;4673;53.458;9.940;2024-03-02T01:47:34;20.30;;;20.20;;
9270;SDS011;4673;53.458;9.940;2024-03-02T01:50:00;19.67;;;19.47;;
9270;SDS011;4673;53.458;9.940;2024-03-02T01:52:27;19.40;;;19.30;;
9270;SDS011;4673;53.458;9.940;2024-03-02T01:54:52;20.87;;;20.67;;
9270;SDS011;4673;53.458;9.940;2024-03-02T01:57:18;19.60;;;19.50;;
9270;SDS011;4673;53.458;9.940;2024-03-02T01:59:44;20.17;;;19.97;;
9270;SDS011;4673;53.458;9.940;2024-03-02T02:02:12;19.53;;;19.43;;
9270;SDS011;4673;53.458;9.940;2024-03-02T02:04:39;18.67;;;18.57;;
9270;SDS011;4673;53.458;9.940;2024-03-02T02:07:04;20.90;;;20.70;;
9270;SDS011;4673;53.458;9.940;2024-03-02T02:09:31;19.33;;;19.13;;
9270;SDS011;4673;53.458;9.940;2024-03-02T02:11:57;19.77;;;19.67;;
9270;SDS011;4673;53.458;9.940;2024-03-02T02:14:23;19.27;;;19.17;;
9270;SDS011;4673;53.458;9.940;2024-03-02T02:16:49;20.33;;;20.13;;
9270;SDS011;4673;53.458;9.940;2024-03-02T02:19:14;19.43;;;19.33;;
9270;SDS011;4673;53.458;9.940;2024-03-02T02:21:43;19.77;;;19.57;;
9270;SDS011;4673;53.458;9.940;2024-03-02T02:24:09;21.00;;;20.80;;
9270;SDS011;4673;53.458;9.940;2024-03-02T02:26:35;20.10;;;19.90;;
9270;SDS011;4673;53.458;9.940;2024-03-02T02:29:01;21.43;;;21.23;;
9270;SDS011;4673;53.458;9.940;2024-03-02T02:31:26;19.23;;;19.10;;
9270;SDS011;4673;53.458;9.940;2024-03-02T02:33:52;19.97;;;19.77;;
9270;SDS011;4673;53.458;9.940;2024-03-02T02:36:17;19.30;;;19.20;;
9270;SDS011;4673;53.458;9.940;2024-03-02T02:38:44;19.87;;;19.67;;
9270;SDS011;4673;53.458;9.940;2024-03-02T02:41:12;22.13;;;21.93;;
9270;SDS011;4673;53.458;9.940;2024-03-02T02:43:38;20.63;;;20.43;;
9270;SDS011;4673;53.458;9.940;2024-03-02T02:46:04;21.93;;;21.80;;
9270;SDS011;4673;53.458;9.940;2024-03-02T02:48:30;19.37;;;19.27;;
9270;SDS011;4673;53.458;9.940;2024-03-02T02:50:56;18.53;;;18.43;;
9270;SDS011;4673;53.458;9.940;2024-03-02T02:53:21;21.37;;;21.17;;
9270;SDS011;4673;53.458;9.940;2024-03-02T02:55:47;21.60;;;21.40;;
9270;SDS011;4673;53.458;9.940;2024-03-02T02:58:13;19.33;;;19.20;;
9270;SDS011;4673;53.458;9.940;2024-03-02T03:00:40;21.60;;;21.40;;
9270;SDS011;4673;53.458;9.940;2024-03-02T03:03:05;20.27;;;20.17;;
9270;SDS011;4673;53.458;9.940;2024-03-02T03:05:31;20.23;;;20.03;;
9270;SDS011;4673;53.458;9.940;2024-03-02T03:07:57;18.93;;;18.83;;
9270;SDS011;4673;53.458;9.940;2024-03-02T03:10:22;20.30;;;20.20;;
9270;SDS011;4673;53.458;9.940;2024-03-02T03:12:50;22.03;;;21.83;;
9270;SDS011;4673;53.458;9.940;2024-03-02T03:15:16;21.77;;;21.57;;
9270;SDS011;4673;53.458;9.940;2024-03-02T03:17:42;20.40;;;20.30;;
9270;SDS011;4673;53.458;9.940;2024-03-02T03:20:08;21.40;;;21.27;;
9270;SDS011;4673;53.458;9.940;2024-03-02T03:22:40;21.13;;;20.93;;
9270;SDS011;4673;53.458;9.940;2024-03-02T03:25:06;21.40;;;21.20;;
9270;SDS011;4673;53.458;9.940;2024-03-02T03:27:34;20.70;;;20.57;;
9270;SDS011;4673;53.458;9.940;2024-03-02T03:30:00;21.80;;;21.60;;
9270;SDS011;4673;53.458;9.940;2024-03-02T03:32:27;21.57;;;21.37;;
9270;SDS011;4673;53.458;9.940;2024-03-02T03:34:53;21.83;;;21.63;;
9270;SDS011;4673;53.458;9.940;2024-03-02T03:37:19;21.63;;;21.43;;
9270;SDS011;4673;53.458;9.940;2024-03-02T03:39:44;22.83;;;22.63;;
9270;SDS011;4673;53.458;9.940;2024-03-02T03:42:10;22.87;;;22.67;;
9270;SDS011;4673;53.458;9.940;2024-03-02T03:44:35;22.30;;;22.10;;
9270;SDS011;4673;53.458;9.940;2024-03-02T03:47:01;21.40;;;21.20;;
9270;SDS011;4673;53.458;9.940;2024-03-02T03:49:27;21.90;;;21.70;;
9270;SDS011;4673;53.458;9.940;2024-03-02T03:51:53;22.70;;;22.50;;
9270;SDS011;4673;53.458;9.940;2024-03-02T03:54:19;22.03;;;21.83;;
9270;SDS011;4673;53.458;9.940;2024-03-02T03:56:44;22.43;;;22.23;;
9270;SDS011;4673;53.458;9.940;2024-03-02T03:59:10;22.67;;;22.47;;
9270;SDS011;4673;53.458;9.940;2024-03-02T04:01:35;21.53;;;21.43;;
9270;SDS011;4673;53.458;9.940;2024-03-02T04:04:02;23.50;;;23.30;;
9270;SDS011;4673;53.458;9.940;2024-03-02T04:06:28;21.93;;;21.73;;
9270;SDS011;4673;53.458;9.940;2024-03-02T04:08:54;22.17;;;21.97;;
9270;SDS011;4673;53.458;9.940;2024-03-02T04:11:20;21.90;;;21.70;;
9270;SDS011;4673;53.458;9.940;2024-03-02T04:13:46;22.20;;;22.00;;
9270;SDS011;4673;53.458;9.940;2024-03-02T04:16:12;21.83;;;21.63;;
9270;SDS011;4673;53.458;9.940;2024-03-02T04:18:37;22.17;;;21.97;;
9270;SDS011;4673;53.458;9.940;2024-03-02T04:21:04;22.20;;;22.00;;
9270;SDS011;4673;53.458;9.940;2024-03-02T04:23:30;22.80;;;22.60;;
9270;SDS011;4673;53.458;9.940;2024-03-02T04:25:56;22.33;;;22.13;;
9270;SDS011;4673;53.458;9.940;2024-03-02T04:28:21;21.00;;;20.83;;
9270;SDS011;4673;53.458;9.940;2024-03-02T04:30:47;22.57;;;22.37;;
9270;SDS011;4673;53.458;9.940;2024-03-02T04:33:12;21.27;;;21.10;;
9270;SDS011;4673;53.458;9.940;2024-03-02T04:35:38;20.30;;;20.20;;
9270;SDS011;4673;53.458;9.940;2024-03-02T04:38:04;23.20;;;23.00;;
9270;SDS011;4673;53.458;9.940;2024-03-02T04:40:29;22.17;;;21.97;;
9270;SDS011;4673;53.458;9.940;2024-03-02T04:42:55;22.50;;;22.30;;
9270;SDS011;4673;53.458;9.940;2024-03-02T04:45:21;20.57;;;20.47;;
9270;SDS011;4673;53.458;9.940;2024-03-02T04:47:46;21.53;;;21.33;;
9270;SDS011;4673;53.458;9.940;2024-03-02T04:50:12;21.50;;;21.30;;
9270;SDS011;4673;53.458;9.940;2024-03-02T04:52:37;21.57;;;21.47;;
9270;SDS011;4673;53.458;9.940;2024-03-02T04:55:03;20.67;;;20.47;;
9270;SDS011;4673;53.458;9.940;2024-03-02T04:57:42;22.10;;;21.90;;
9270;SDS011;4673;53.458;9.940;2024-03-02T05:00:08;20.63;;;20.43;;
9270;SDS011;4673;53.458;9.940;2024-03-02T05:02:34;21.57;;;21.37;;
9270;SDS011;4673;53.458;9.940;2024-03-02T05:05:00;21.53;;;21.33;;
9270;SDS011;4673;53.458;9.940;2024-03-02T05:07:27;22.07;;;21.87;;
9270;SDS011;4673;53.458;9.940;2024-03-02T05:09:53;21.70;;;21.50;;
9270;SDS011;4673;53.458;9.940;2024-03-02T05:12:18;22.17;;;21.97;;
9270;SDS011;4673;53.458;9.940;2024-03-02T05:15:02;23.43;;;23.23;;
9270;SDS011;4673;53.458;9.940;2024-03-02T05:17:28;22.27;;;22.07;;
9270;SDS011;4673;53.458;9.940;2024-03-02T05:19:54;22.30;;;22.10;;
9270;SDS011;4673;53.458;9.940;2024-03-02T05:22:20;19.60;;;19.43;;
9270;SDS011;4673;53.458;9.940;2024-03-02T05:24:45;19.50;;;19.40;;
9270;SDS011;4673;53.458;9.940;2024-03-02T05:27:11;20.17;;;20.07;;
9270;SDS011;4673;53.458;9.940;2024-03-02T05:29:36;20.80;;;20.60;;
9270;SDS011;4673;53.458;9.940;2024-03-02T05:32:02;21.13;;;21.03;;
9270;SDS011;4673;53.458;9.940;2024-03-02T05:34:28;21.23;;;21.03;;
9270;SDS011;4673;53.458;9.940;2024-03-02T05:36:54;20.93;;;20.83;;
9270;SDS011;4673;53.458;9.940;2024-03-02T05:39:20;21.63;;;21.43;;
9270;SDS011;4673;53.458;9.940;2024-03-02T05:41:45;19.07;;;18.97;;
9270;SDS011;4673;53.458;9.940;2024-03-02T05:44:11;20.23;;;20.03;;
9270;SDS011;4673;53.458;9.940;2024-03-02T05:46:37;20.87;;;20.77;;
9270;SDS011;4673;53.458;9.940;2024-03-02T05:49:03;19.77;;;19.67;;
9270;SDS011;4673;53.458;9.940;2024-03-02T05:51:28;21.20;;;21.00;;
9270;SDS011;4673;53.458;9.940;2024-03-02T05:53:54;19.87;;;19.77;;
9270;SDS011;4673;53.458;9.940;2024-03-02T05:56:19;22.07;;;21.97;;
9270;SDS011;4673;53.458;9.940;2024-03-02T05:58:45;20.30;;;20.10;;
9270;SDS011;4673;53.458;9.940;2024-03-02T06:01:33;20.23;;;20.13;;
9270;SDS011;4673;53.458;9.940;2024-03-02T06:03:59;20.33;;;20.23;;
9270;SDS011;4673;53.458;9.940;2024-03-02T06:06:25;19.40;;;19.30;;
9270;SDS011;4673;53.458;9.940;2024-03-02T06:08:51;20.57;;;20.37;;
9270;SDS011;4673;53.458;9.940;2024-03-02T06:11:17;21.57;;;21.37;;
9270;SDS011;4673;53.458;9.940;2024-03-02T06:13:44;20.90;;;20.80;;
9270;SDS011;4673;53.458;9.940;2024-03-02T06:16:10;19.97;;;19.77;;
9270;SDS011;4673;53.458;9.940;2024-03-02T06:18:35;20.03;;;19.93;;
9270;SDS011;4673;53.458;9.940;2024-03-02T06:21:01;21.50;;;21.40;;
9270;SDS011;4673;53.458;9.940;2024-03-02T06:23:27;20.90;;;20.73;;
9270;SDS011;4673;53.458;9.940;2024-03-02T06:25:53;21.43;;;21.23;;
9270;SDS011;4673;53.458;9.940;2024-03-02T06:28:18;21.53;;;21.33;;
9270;SDS011;4673;53.458;9.940;2024-03-02T06:30:44;20.80;;;20.60;;
9270;SDS011;4673;53.458;9.940;2024-03-02T06:33:10;19.97;;;19.77;;
9270;SDS011;4673;53.458;9.940;2024-03-02T06:35:36;21.33;;;21.13;;
9270;SDS011;4673;53.458;9.940;2024-03-02T06:38:02;21.90;;;21.80;;
9270;SDS011;4673;53.458;9.940;2024-03-02T06:40:28;20.93;;;20.77;;
9270;SDS011;4673;53.458;9.940;2024-03-02T06:42:53;21.40;;;21.20;;
9270;SDS011;4673;53.458;9.940;2024-03-02T06:45:19;19.53;;;19.43;;
9270;SDS011;4673;53.458;9.940;2024-03-02T06:47:45;20.10;;;20.00;;
9270;SDS011;4673;53.458;9.940;2024-03-02T06:50:10;20.10;;;19.90;;
9270;SDS011;4673;53.458;9.940;2024-03-02T06:52:36;21.83;;;21.67;;
9270;SDS011;4673;53.458;9.940;2024-03-02T06:55:02;22.60;;;22.40;;
9270;SDS011;4673;53.458;9.940;2024-03-02T06:57:29;22.77;;;22.57;;
9270;SDS011;4673;53.458;9.940;2024-03-02T06:59:54;20.40;;;20.30;;
9270;SDS011;4673;53.458;9.940;2024-03-02T07:02:23;21.80;;;21.60;;
9270;SDS011;4673;53.458;9.940;2024-03-02T07:04:50;20.87;;;20.67;;
9270;SDS011;4673;53.458;9.940;2024-03-02T07:07:16;22.17;;;21.97;;
9270;SDS011;4673;53.458;9.940;2024-03-02T07:09:42;21.80;;;21.60;;
9270;SDS011;4673;53.458;9.940;2024-03-02T07:12:07;21.07;;;20.87;;
9270;SDS011;4673;53.458;9.940;2024-03-02T07:14:33;21.20;;;21.00;;
9270;SDS011;4673;53.458;9.940;2024-03-02T07:17:20;21.90;;;21.70;;
9270;SDS011;4673;53.458;9.940;2024-03-02T07:19:46;21.37;;;21.17;;
9270;SDS011;4673;53.458;9.940;2024-03-02T07:22:12;20.10;;;20.00;;
9270;SDS011;4673;53.458;9.940;2024-03-02T07:24:41;19.60;;;19.50;;
9270;SDS011;4673;53.458;9.940;2024-03-02T07:27:07;20.57;;;20.47;;
9270;SDS011;4673;53.458;9.940;2024-03-02T07:29:34;20.50;;;20.30;;
9270;SDS011;4673;53.458;9.940;2024-03-02T07:32:00;18.97;;;18.87;;
9270;SDS011;4673;53.458;9.940;2024-03-02T07:34:26;18.03;;;17.93;;
9270;SDS011;4673;53.458;9.940;2024-03-02T07:36:51;18.03;;;17.93;;
9270;SDS011;4673;53.458;9.940;2024-03-02T07:39:17;19.87;;;19.77;;
9270;SDS011;4673;53.458;9.940;2024-03-02T07:41:44;19.73;;;19.63;;
9270;SDS011;4673;53.458;9.940;2024-03-02T07:44:11;18.80;;;18.70;;
9270;SDS011;4673;53.458;9.940;2024-03-02T07:46:43;17.37;;;17.27;;
9270;SDS011;4673;53.458;9.940;2024-03-02T07:49:09;18.17;;;18.07;;
9270;SDS011;4673;53.458;9.940;2024-03-02T07:51:35;18.33;;;18.23;;
9270;SDS011;4673;53.458;9.940;2024-03-02T07:54:03;17.70;;;17.60;;
9270;SDS011;4673;53.458;9.940;2024-03-02T07:56:29;16.07;;;15.97;;
9270;SDS011;4673;53.458;9.940;2024-03-02T07:58:55;17.50;;;17.40;;
9270;SDS011;4673;53.458;9.940;2024-03-02T08:01:22;16.60;;;16.50;;
9270;SDS011;4673;53.458;9.940;2024-03-02T08:03:48;17.50;;;17.40;;
9270;SDS011;4673;53.458;9.940;2024-03-02T08:06:15;16.57;;;16.47;;
9270;SDS011;4673;53.458;9.940;2024-03-02T08:08:46;15.50;;;15.40;;
9270;SDS011;4673;53.458;9.940;2024-03-02T08:11:12;15.43;;;15.33;;
9270;SDS011;4673;53.458;9.940;2024-03-02T08:13:38;15.53;;;15.43;;
9270;SDS011;4673;53.458;9.940;2024-03-02T08:16:03;16.40;;;16.30;;
9270;SDS011;4673;53.458;9.940;2024-03-02T08:18:32;15.93;;;15.83;;
9270;SDS011;4673;53.458;9.940;2024-03-02T08:20:58;15.77;;;15.67;;
9270;SDS011;4673;53.458;9.940;2024-03-02T08:23:24;15.33;;;15.23;;
9270;SDS011;4673;53.458;9.940;2024-03-02T08:25:50;15.60;;;15.50;;
9270;SDS011;4673;53.458;9.940;2024-03-02T08:28:15;14.93;;;14.83;;
9270;SDS011;4673;53.458;9.940;2024-03-02T08:30:41;15.17;;;15.07;;
9270;SDS011;4673;53.458;9.940;2024-03-02T08:33:07;14.67;;;14.57;;
9270;SDS011;4673;53.458;9.940;2024-03-02T08:35:33;14.93;;;14.83;;
9270;SDS011;4673;53.458;9.940;2024-03-02T08:38:01;13.83;;;13.73;;
9270;SDS011;4673;53.458;9.940;2024-03-02T08:40:28;14.50;;;14.40;;
9270;SDS011;4673;53.458;9.940;2024-03-02T08:42:54;14.70;;;14.60;;
9270;SDS011;4673;53.458;9.940;2024-03-02T08:45:20;14.57;;;14.47;;
9270;SDS011;4673;53.458;9.940;2024-03-02T08:47:46;14.43;;;14.33;;
9270;SDS011;4673;53.458;9.940;2024-03-02T08:50:12;14.10;;;14.00;;
9270;SDS011;4673;53.458;9.940;2024-03-02T08:52:38;14.80;;;14.70;;
9270;SDS011;4673;53.458;9.940;2024-03-02T08:55:04;13.47;;;13.37;;
9270;SDS011;4673;53.458;9.940;2024-03-02T08:57:30;13.03;;;12.93;;
9270;SDS011;4673;53.458;9.940;2024-03-02T08:59:56;12.70;;;12.60;;
9270;SDS011;4673;53.458;9.940;2024-03-02T09:02:22;12.97;;;12.87;;
9270;SDS011;4673;53.458;9.940;2024-03-02T09:04:48;13.00;;;12.90;;
9270;SDS011;4673;53.458;9.940;2024-03-02T09:07:14;12.23;;;12.23;;
9270;SDS011;4673;53.458;9.940;2024-03-02T09:09:40;13.07;;;12.97;;
9270;SDS011;4673;53.458;9.940;2024-03-02T09:12:06;13.10;;;13.00;;
9270;SDS011;4673;53.458;9.940;2024-03-02T09:14:32;11.23;;;11.23;;
9270;SDS011;4673;53.458;9.940;2024-03-02T09:16:58;12.83;;;12.73;;
9270;SDS011;4673;53.458;9.940;2024-03-02T09:19:24;11.23;;;11.23;;
9270;SDS011;4673;53.458;9.940;2024-03-02T09:21:50;12.60;;;12.50;;
9270;SDS011;4673;53.458;9.940;2024-03-02T09:24:16;12.80;;;12.70;;
9270;SDS011;4673;53.458;9.940;2024-03-02T09:26:41;10.67;;;10.60;;
9270;SDS011;4673;53.458;9.940;2024-03-02T09:29:07;11.57;;;11.57;;
9270;SDS011;4673;53.458;9.940;2024-03-02T09:31:33;11.93;;;11.90;;
9270;SDS011;4673;53.458;9.940;2024-03-02T09:34:03;11.27;;;11.27;;
9270;SDS011;4673;53.458;9.940;2024-03-02T09:36:29;11.87;;;11.77;;
9270;SDS011;4673;53.458;9.940;2024-03-02T09:38:55;10.50;;;10.50;;
9270;SDS011;4673;53.458;9.940;2024-03-02T09:41:20;11.03;;;10.93;;
9270;SDS011;4673;53.458;9.940;2024-03-02T09:43:46;10.63;;;10.63;;
9270;SDS011;4673;53.458;9.940;2024-03-02T09:46:12;11.10;;;11.10;;
9270;SDS011;4673;53.458;9.940;2024-03-02T09:48:38;11.07;;;10.97;;
9270;SDS011;4673;53.458;9.940;2024-03-02T09:51:04;11.03;;;11.03;;
9270;SDS011;4673;53.458;9.940;2024-03-02T09:53:31;10.13;;;10.13;;
9270;SDS011;4673;53.458;9.940;2024-03-02T09:55:58;11.03;;;11.03;;
9270;SDS011;4673;53.458;9.940;2024-03-02T09:58:25;10.43;;;10.43;;
9270;SDS011;4673;53.458;9.940;2024-03-02T10:00:51;9.87;;;9.87;;
9270;SDS011;4673;53.458;9.940;2024-03-02T10:03:18;9.30;;;9.30;;
9270;SDS011;4673;53.458;9.940;2024-03-02T10:05:44;9.13;;;9.13;;
9270;SDS011;4673;53.458;9.940;2024-03-02T10:08:10;9.43;;;9.43;;
9270;SDS011;4673;53.458;9.940;2024-03-02T10:10:39;9.50;;;9.50;;
9270;SDS011;4673;53.458;9.940;2024-03-02T10:13:07;9.77;;;9.77;;
9270;SDS011;4673;53.458;9.940;2024-03-02T10:15:33;9.00;;;9.00;;
9270;SDS011;4673;53.458;9.940;2024-03-02T10:18:00;8.97;;;8.97;;
9270;SDS011;4673;53.458;9.940;2024-03-02T10:20:26;8.97;;;8.97;;
9270;SDS011;4673;53.458;9.940;2024-03-02T10:22:54;9.10;;;9.10;;
9270;SDS011;4673;53.458;9.940;2024-03-02T10:25:30;8.17;;;8.17;;
9270;SDS011;4673;53.458;9.940;2024-03-02T10:28:00;7.57;;;7.57;;
9270;SDS011;4673;53.458;9.940;2024-03-02T10:30:27;8.83;;;8.83;;
9270;SDS011;4673;53.458;9.940;2024-03-02T10:32:53;8.50;;;8.50;;
9270;SDS011;4673;53.458;9.940;2024-03-02T10:35:20;8.73;;;8.73;;
9270;SDS011;4673;53.458;9.940;2024-03-02T10:37:48;7.78;;;7.78;;
9270;SDS011;4673;53.458;9.940;2024-03-02T10:40:23;7.43;;;7.43;;
9270;SDS011;4673;53.458;9.940;2024-03-02T10:42:51;7.72;;;7.72;;
9270;SDS011;4673;53.458;9.940;2024-03-02T10:45:17;7.80;;;7.80;;
9270;SDS011;4673;53.458;9.940;2024-03-02T10:47:46;7.28;;;7.28;;
9270;SDS011;4673;53.458;9.940;2024-03-02T10:50:12;7.85;;;7.85;;
9270;SDS011;4673;53.458;9.940;2024-03-02T10:52:38;7.43;;;7.43;;
9270;SDS011;4673;53.458;9.940;2024-03-02T10:55:04;7.10;;;7.10;;
9270;SDS011;4673;53.458;9.940;2024-03-02T10:57:41;7.57;;;7.57;;
9270;SDS011;4673;53.458;9.940;2024-03-02T11:00:11;7.10;;;7.10;;
9270;SDS011;4673;53.458;9.940;2024-03-02T11:02:50;7.10;;;7.10;;
9270;SDS011;4673;53.458;9.940;2024-03-02T11:05:27;7.45;;;7.45;;
9270;SDS011;4673;53.458;9.940;2024-03-02T11:07:57;6.80;;;6.80;;
9270;SDS011;4673;53.458;9.940;2024-03-02T11:10:37;7.07;;;7.07;;
9270;SDS011;4673;53.458;9.940;2024-03-02T11:13:11;7.38;;;7.38;;
9270;SDS011;4673;53.458;9.940;2024-03-02T11:15:40;5.82;;;5.82;;
9270;SDS011;4673;53.458;9.940;2024-03-02T11:18:09;6.88;;;6.88;;
9270;SDS011;4673;53.458;9.940;2024-03-02T11:20:39;6.05;;;6.05;;
9270;SDS011;4673;53.458;9.940;2024-03-02T11:23:06;6.07;;;6.07;;
9270;SDS011;4673;53.458;9.940;2024-03-02T11:25:32;6.32;;;6.32;;
9270;SDS011;4673;53.458;9.940;2024-03-02T11:27:58;6.13;;;6.13;;
9270;SDS011;4673;53.458;9.940;2024-03-02T11:32:57;6.38;;;6.38;;
9270;SDS011;4673;53.458;9.940;2024-03-02T11:35:32;6.53;;;6.53;;
9270;SDS011;4673;53.458;9.940;2024-03-02T11:38:04;5.90;;;5.90;;
9270;SDS011;4673;53.458;9.940;2024-03-02T11:40:32;6.53;;;6.53;;
9270;SDS011;4673;53.458;9.940;2024-03-02T11:43:00;5.53;;;5.53;;
9270;SDS011;4673;53.458;9.940;2024-03-02T11:45:26;5.65;;;5.65;;
9270;SDS011;4673;53.458;9.940;2024-03-02T11:47:57;5.75;;;5.75;;
9270;SDS011;4673;53.458;9.940;2024-03-02T11:53:02;6.13;;;6.13;;
9270;SDS011;4673;53.458;9.940;2024-03-02T11:55:34;5.63;;;5.63;;
9270;SDS011;4673;53.458;9.940;2024-03-02T11:58:04;6.70;;;6.70;;
9270;SDS011;4673;53.458;9.940;2024-03-02T12:00:30;6.05;;;6.05;;
9270;SDS011;4673;53.458;9.940;2024-03-02T12:03:00;5.75;;;5.75;;
9270;SDS011;4673;53.458;9.940;2024-03-02T12:05:26;5.78;;;5.78;;
9270;SDS011;4673;53.458;9.940;2024-03-02T12:07:59;5.30;;;5.30;;
9270;SDS011;4673;53.458;9.940;2024-03-02T12:10:26;4.97;;;4.97;;
9270;SDS011;4673;53.458;9.940;2024-03-02T12:12:58;6.03;;;6.03;;
9270;SDS011;4673;53.458;9.940;2024-03-02T12:15:32;5.13;;;5.13;;
9270;SDS011;4673;53.458;9.940;2024-03-02T12:18:00;5.60;;;5.60;;
9270;SDS011;4673;53.458;9.940;2024-03-02T12:20:27;6.72;;;6.72;;
9270;SDS011;4673;53.458;9.940;2024-03-02T12:22:54;5.43;;;5.43;;
9270;SDS011;4673;53.458;9.940;2024-03-02T12:25:23;5.38;;;5.38;;
9270;SDS011;4673;53.458;9.940;2024-03-02T12:27:53;5.18;;;5.18;;
9270;SDS011;4673;53.458;9.940;2024-03-02T12:30:20;5.47;;;5.47;;
9270;SDS011;4673;53.458;9.940;2024-03-02T12:32:47;5.35;;;5.35;;
9270;SDS011;4673;53.458;9.940;2024-03-02T12:35:13;5.07;;;5.07;;
9270;SDS011;4673;53.458;9.940;2024-03-02T12:37:50;4.75;;;4.75;;
9270;SDS011;4673;53.458;9.940;2024-03-02T12:40:17;5.43;;;5.43;;
9270;SDS011;4673;53.458;9.940;2024-03-02T12:42:45;4.78;;;4.78;;
9270;SDS011;4673;53.458;9.940;2024-03-02T12:45:11;5.18;;;5.18;;
9270;SDS011;4673;53.458;9.940;2024-03-02T12:47:39;4.20;;;4.20;;
9270;SDS011;4673;53.458;9.940;2024-03-02T12:50:06;5.47;;;5.47;;
9270;SDS011;4673;53.458;9.940;2024-03-02T12:52:32;4.97;;;4.97;;
9270;SDS011;4673;53.458;9.940;2024-03-02T12:55:02;5.72;;;5.72;;
9270;SDS011;4673;53.458;9.940;2024-03-02T12:57:32;5.07;;;5.07;;
9270;SDS011;4673;53.458;9.940;2024-03-02T13:00:02;5.82;;;5.82;;
9270;SDS011;4673;53.458;9.940;2024-03-02T13:02:34;4.93;;;4.93;;
9270;SDS011;4673;53.458;9.940;2024-03-02T13:05:02;5.05;;;5.05;;
9270;SDS011;4673;53.458;9.940;2024-03-02T13:07:30;5.07;;;5.07;;
9270;SDS011;4673;53.458;9.940;2024-03-02T13:09:58;4.53;;;4.53;;
9270;SDS011;4673;53.458;9.940;2024-03-02T13:12:24;5.22;;;5.22;;
9270;SDS011;4673;53.458;9.940;2024-03-02T13:14:53;4.80;;;4.80;;
9270;SDS011;4673;53.458;9.940;2024-03-02T13:17:18;4.90;;;4.90;;
9270;SDS011;4673;53.458;9.940;2024-03-02T13:19:51;5.22;;;5.22;;
9270;SDS011;4673;53.458;9.940;2024-03-02T13:22:18;4.80;;;4.80;;
9270;SDS011;4673;53.458;9.940;2024-03-02T13:24:44;4.78;;;4.78;;
9270;SDS011;4673;53.458;9.940;2024-03-02T13:27:09;5.78;;;5.78;;
9270;SDS011;4673;53.458;9.940;2024-03-02T13:29:35;5.22;;;5.22;;
9270;SDS011;4673;53.458;9.940;2024-03-02T13:32:01;4.78;;;4.78;;
9270;SDS011;4673;53.458;9.940;2024-03-02T13:34:26;4.80;;;4.80;;
9270;SDS011;4673;53.458;9.940;2024-03-02T13:36:52;4.75;;;4.75;;
9270;SDS011;4673;53.458;9.940;2024-03-02T13:39:17;5.07;;;5.07;;
9270;SDS011;4673;53.458;9.940;2024-03-02T13:41:43;3.92;;;3.92;;
9270;SDS011;4673;53.458;9.940;2024-03-02T13:44:17;4.75;;;4.75;;
9270;SDS011;4673;53.458;9.940;2024-03-02T13:46:43;4.35;;;4.35;;
9270;SDS011;4673;53.458;9.940;2024-03-02T13:49:10;4.57;;;4.57;;
9270;SDS011;4673;53.458;9.940;2024-03-02T13:51:36;4.20;;;4.20;;
9270;SDS011;4673;53.458;9.940;2024-03-02T13:54:03;4.22;;;4.22;;
9270;SDS011;4673;53.458;9.940;2024-03-02T13:56:29;4.18;;;4.18;;
9270;SDS011;4673;53.458;9.940;2024-03-02T13:58:55;3.95;;;3.95;;
9270;SDS011;4673;53.458;9.940;2024-03-02T14:01:21;4.55;;;4.55;;
9270;SDS011;4673;53.458;9.940;2024-03-02T14:03:47;4.10;;;4.10;;
9270;SDS011;4673;53.458;9.940;2024-03-02T14:06:12;4.35;;;4.35;;
9270;SDS011;4673;53.458;9.940;2024-03-02T14:08:38;4.28;;;4.28;;
9270;SDS011;4673;53.458;9.940;2024-03-02T14:11:04;5.25;;;5.25;;
9270;SDS011;4673;53.458;9.940;2024-03-02T14:13:30;4.55;;;4.55;;
9270;SDS011;4673;53.458;9.940;2024-03-02T14:15:55;4.50;;;4.50;;
9270;SDS011;4673;53.458;9.940;2024-03-02T14:18:21;4.20;;;4.20;;
9270;SDS011;4673;53.458;9.940;2024-03-02T14:20:47;4.55;;;4.55;;
9270;SDS011;4673;53.458;9.940;2024-03-02T14:23:17;4.47;;;4.47;;
9270;SDS011;4673;53.458;9.940;2024-03-02T14:25:44;4.20;;;4.20;;
9270;SDS011;4673;53.458;9.940;2024-03-02T14:28:10;4.63;;;4.63;;
9270;SDS011;4673;53.458;9.940;2024-03-02T14:30:37;4.90;;;4.90;;
9270;SDS011;4673;53.458;9.940;2024-03-02T14:33:02;4.90;;;4.90;;
9270;SDS011;4673;53.458;9.940;2024-03-02T14:35:28;4.63;;;4.63;;
9270;SDS011;4673;53.458;9.940;2024-03-02T14:37:54;4.95;;;4.95;;
9270;SDS011;4673;53.458;9.940;2024-03-02T14:40:20;5.05;;;5.05;;
9270;SDS011;4673;53.458;9.940;2024-03-02T14:42:46;4.85;;;4.85;;
9270;SDS011;4673;53.458;9.940;2024-03-02T14:45:13;4.75;;;4.75;;
9270;SDS011;4673;53.458;9.940;2024-03-02T14:47:39;4.55;;;4.55;;
9270;SDS011;4673;53.458;9.940;2024-03-02T14:50:05;6.43;;;6.43;;
9270;SDS011;4673;53.458;9.940;2024-03-02T14:52:31;5.13;;;5.13;;
9270;SDS011;4673;53.458;9.940;2024-03-02T14:54:57;5.15;;;5.15;;
9270;SDS011;4673;53.458;9.940;2024-03-02T14:57:23;6.15;;;6.15;;
9270;SDS011;4673;53.458;9.940;2024-03-02T14:59:49;5.07;;;5.07;;
9270;SDS011;4673;53.458;9.940;2024-03-02T15:02:14;5.03;;;5.03;;
9270;SDS011;4673;53.458;9.940;2024-03-02T15:04:40;4.47;;;4.47;;
9270;SDS011;4673;53.458;9.940;2024-03-02T15:07:06;4.30;;;4.30;;